sensor_id;sensor_type;location;lat;lon;timestamp;pressure;altitude;pressure_sealevel;temperature;humidity
22311;BME280;11323;49.610;11.016;2023-05-24T00:00:21;98440.53;;;20.97;57.94
22311;BME280;11323;49.610;11.016;2023-05-24T00:05:22;98449.72;;;20.94;58.21
22311;BME280;11323;49.610;11.016;2023-05-24T00:10:24;98435.66;;;20.94;58.33
22311;BME280;11323;49.610;11.016;2023-05-24T00:15:24;98440.53;;;20.90;58.55
22311;BME280;11323;49.610;11.016;2023-05-24T00:20:25;98439.13;;;20.88;57.91
22311;BME280;11323;49.610;11.016;2023-05-24T00:25:25;98434.66;;;20.88;58.28
22311;BME280;11323;49.610;11.016;2023-05-24T00:30:26;98432.59;;;20.83;58.12
22311;BME280;11323;49.610;11.016;2023-05-24T00:35:29;98433.41;;;20.84;58.36
22311;BME280;11323;49.610;11.016;2023-05-24T00:40:29;98419.97;;;20.86;58.16
22311;BME280;11323;49.610;11.016;2023-05-24T00:45:29;98413.47;;;20.81;58.33
22311;BME280;11323;49.610;11.016;2023-05-24T00:50:30;98416.91;;;20.82;58.64
22311;BME280;11323;49.610;11.016;2023-05-24T00:55:35;98405.69;;;20.80;58.32
22311;BME280;11323;49.610;11.016;2023-05-24T01:00:36;98413.03;;;20.78;58.52
22311;BME280;11323;49.610;11.016;2023-05-24T01:05:36;98413.84;;;20.78;58.58
22311;BME280;11323;49.610;11.016;2023-05-24T01:10:54;98417.53;;;20.77;58.37
22311;BME280;11323;49.610;11.016;2023-05-24T01:16:16;98410.59;;;20.76;58.69
22311;BME280;11323;49.610;11.016;2023-05-24T01:21:40;98418.75;;;20.75;58.56
22311;BME280;11323;49.610;11.016;2023-05-24T01:27:06;98417.09;;;20.74;58.40
22311;BME280;11323;49.610;11.016;2023-05-24T01:32:08;98415.44;;;20.73;58.65
22311;BME280;11323;49.610;11.016;2023-05-24T01:37:09;98409.31;;;20.72;58.92
22311;BME280;11323;49.610;11.016;2023-05-24T01:42:27;98416.47;;;20.72;58.68
22311;BME280;11323;49.610;11.016;2023-05-24T01:47:54;98420.34;;;20.69;58.88
22311;BME280;11323;49.610;11.016;2023-05-24T01:52:59;98415.44;;;20.66;58.38
22311;BME280;11323;49.610;11.016;2023-05-24T01:58:05;98416.06;;;20.68;58.58
22311;BME280;11323;49.610;11.016;2023-05-24T02:03:06;98418.72;;;20.68;58.81
22311;BME280;11323;49.610;11.016;2023-05-24T02:08:07;98426.84;;;20.66;58.88
22311;BME280;11323;49.610;11.016;2023-05-24T02:13:08;98429.69;;;20.65;59.15
22311;BME280;11323;49.610;11.016;2023-05-24T02:18:08;98425.41;;;20.64;58.91
22311;BME280;11323;49.610;11.016;2023-05-24T02:23:10;98420.13;;;20.64;58.72
22311;BME280;11323;49.610;11.016;2023-05-24T02:28:10;98427.25;;;20.63;58.78
22311;BME280;11323;49.610;11.016;2023-05-24T02:33:11;98431.72;;;20.63;58.74
22311;BME280;11323;49.610;11.016;2023-05-24T02:38:11;98425.81;;;20.61;58.94
22311;BME280;11323;49.610;11.016;2023-05-24T02:43:12;98433.75;;;20.61;59.04
22311;BME280;11323;49.610;11.016;2023-05-24T02:48:12;98425.81;;;20.61;58.62
22311;BME280;11323;49.610;11.016;2023-05-24T02:53:13;98424.22;;;20.60;58.87
22311;BME280;11323;49.610;11.016;2023-05-24T02:58:14;98433.97;;;20.59;58.87
22311;BME280;11323;49.610;11.016;2023-05-24T03:03:17;98420.31;;;20.56;59.24
22311;BME280;11323;49.610;11.016;2023-05-24T03:08:18;98421.97;;;20.57;58.63
22311;BME280;11323;49.610;11.016;2023-05-24T03:13:19;98418.69;;;20.55;59.11
22311;BME280;11323;49.610;11.016;2023-05-24T03:18:19;98411.75;;;20.53;59.07
22311;BME280;11323;49.610;11.016;2023-05-24T03:23:20;98425.84;;;20.54;58.97
22311;BME280;11323;49.610;11.016;2023-05-24T03:28:20;98421.56;;;20.53;58.58
22311;BME280;11323;49.610;11.016;2023-05-24T03:33:21;98419.91;;;20.52;58.99
22311;BME280;11323;49.610;11.016;2023-05-24T03:38:22;98424.38;;;20.51;58.56
22311;BME280;11323;49.610;11.016;2023-05-24T03:43:24;98425.63;;;20.49;59.27
22311;BME280;11323;49.610;11.016;2023-05-24T03:48:35;98421.13;;;20.49;59.32
22311;BME280;11323;49.610;11.016;2023-05-24T03:53:35;98426.63;;;20.48;59.46
22311;BME280;11323;49.610;11.016;2023-05-24T03:58:36;98417.88;;;20.47;59.19
22311;BME280;11323;49.610;11.016;2023-05-24T04:03:36;98420.53;;;20.47;59.15
22311;BME280;11323;49.610;11.016;2023-05-24T04:08:38;98422.75;;;20.44;59.19
22311;BME280;11323;49.610;11.016;2023-05-24T04:13:39;98423.56;;;20.44;59.37
22311;BME280;11323;49.610;11.016;2023-05-24T04:18:40;98423.56;;;20.44;59.26
22311;BME280;11323;49.610;11.016;2023-05-24T04:23:40;98430.50;;;20.45;59.27
22311;BME280;11323;49.610;11.016;2023-05-24T04:28:41;98433.31;;;20.44;59.15
22311;BME280;11323;49.610;11.016;2023-05-24T04:33:41;98427.22;;;20.43;59.19
22311;BME280;11323;49.610;11.016;2023-05-24T04:38:42;98430.91;;;20.42;58.80
22311;BME280;11323;49.610;11.016;2023-05-24T04:43:44;98436.19;;;20.42;59.54
22311;BME280;11323;49.610;11.016;2023-05-24T04:48:45;98433.75;;;20.41;58.93
22311;BME280;11323;49.610;11.016;2023-05-24T04:53:45;98429.25;;;20.41;59.00
22311;BME280;11323;49.610;11.016;2023-05-24T04:58:46;98429.25;;;20.41;58.71
22311;BME280;11323;49.610;11.016;2023-05-24T05:03:47;98433.75;;;20.41;58.90
22311;BME280;11323;49.610;11.016;2023-05-24T05:08:47;98432.53;;;20.43;58.88
22311;BME280;11323;49.610;11.016;2023-05-24T05:13:47;98439.84;;;20.41;58.88
22311;BME280;11323;49.610;11.016;2023-05-24T05:18:48;98448.81;;;20.40;59.04
22311;BME280;11323;49.610;11.016;2023-05-24T05:23:48;98447.16;;;20.39;59.27
22311;BME280;11323;49.610;11.016;2023-05-24T05:28:48;98458.19;;;20.36;57.87
22311;BME280;11323;49.610;11.016;2023-05-24T05:33:49;98449.78;;;19.42;51.32
22311;BME280;11323;49.610;11.016;2023-05-24T05:38:49;98453.59;;;19.04;49.28
22311;BME280;11323;49.610;11.016;2023-05-24T05:43:50;98449.13;;;18.83;48.95
22311;BME280;11323;49.610;11.016;2023-05-24T05:48:50;98464.22;;;18.67;48.65
22311;BME280;11323;49.610;11.016;2023-05-24T05:53:50;98454.09;;;18.49;48.51
22311;BME280;11323;49.610;11.016;2023-05-24T05:58:51;98460.38;;;18.48;48.23
22311;BME280;11323;49.610;11.016;2023-05-24T06:03:51;98472.81;;;18.18;46.78
22311;BME280;11323;49.610;11.016;2023-05-24T06:08:52;98479.22;;;18.09;47.27
22311;BME280;11323;49.610;11.016;2023-05-24T06:13:52;98480.31;;;17.99;46.87
22311;BME280;11323;49.610;11.016;2023-05-24T06:18:54;98486.59;;;17.98;46.61
22311;BME280;11323;49.610;11.016;2023-05-24T06:23:54;98488.38;;;17.83;46.37
22311;BME280;11323;49.610;11.016;2023-05-24T06:28:57;98491.84;;;17.83;45.65
22311;BME280;11323;49.610;11.016;2023-05-24T06:33:57;98495.94;;;17.71;46.19
22311;BME280;11323;49.610;11.016;2023-05-24T06:38:58;98492.22;;;17.65;46.40
22311;BME280;11323;49.610;11.016;2023-05-24T06:43:58;98498.28;;;17.51;46.92
22311;BME280;11323;49.610;11.016;2023-05-24T06:48:59;98491.72;;;17.47;47.18
22311;BME280;11323;49.610;11.016;2023-05-24T06:53:59;98502.31;;;17.77;47.87
22311;BME280;11323;49.610;11.016;2023-05-24T06:59:00;98508.13;;;18.17;48.42
22311;BME280;11323;49.610;11.016;2023-05-24T07:04:00;98515.72;;;18.42;48.74
22311;BME280;11323;49.610;11.016;2023-05-24T07:09:00;98517.88;;;18.53;49.38
22311;BME280;11323;49.610;11.016;2023-05-24T07:14:01;98515.94;;;18.62;49.65
22311;BME280;11323;49.610;11.016;2023-05-24T07:19:01;98516.81;;;18.69;50.10
22311;BME280;11323;49.610;11.016;2023-05-24T07:24:02;98523.19;;;18.75;50.44
22311;BME280;11323;49.610;11.016;2023-05-24T07:29:03;98520.16;;;18.78;50.44
22311;BME280;11323;49.610;11.016;2023-05-24T07:34:03;98524.88;;;18.82;50.98
22311;BME280;11323;49.610;11.016;2023-05-24T07:39:03;98527.97;;;18.86;50.98
22311;BME280;11323;49.610;11.016;2023-05-24T07:44:05;98523.94;;;18.90;50.95
22311;BME280;11323;49.610;11.016;2023-05-24T07:49:06;98525.59;;;18.91;51.23
22311;BME280;11323;49.610;11.016;2023-05-24T07:54:06;98524.75;;;18.91;51.50
22311;BME280;11323;49.610;11.016;2023-05-24T07:59:06;98530.13;;;18.97;51.57
22311;BME280;11323;49.610;11.016;2023-05-24T08:04:08;98527.50;;;18.97;51.59
22311;BME280;11323;49.610;11.016;2023-05-24T08:09:09;98527.28;;;18.99;51.46
22311;BME280;11323;49.610;11.016;2023-05-24T08:14:09;98529.38;;;19.04;51.67
22311;BME280;11323;49.610;11.016;2023-05-24T08:19:10;98527.34;;;19.06;52.02
22311;BME280;11323;49.610;11.016;2023-05-24T08:24:10;98536.28;;;19.05;52.08
22311;BME280;11323;49.610;11.016;2023-05-24T08:29:11;98533.06;;;19.09;52.14
22311;BME280;11323;49.610;11.016;2023-05-24T08:34:11;98544.09;;;19.13;52.23
22311;BME280;11323;49.610;11.016;2023-05-24T08:39:11;98544.72;;;19.15;52.44
22311;BME280;11323;49.610;11.016;2023-05-24T08:44:13;98545.34;;;19.17;52.04
22311;BME280;11323;49.610;11.016;2023-05-24T08:49:14;98546.97;;;19.18;52.40
22311;BME280;11323;49.610;11.016;2023-05-24T08:54:15;98546.97;;;19.18;52.52
22311;BME280;11323;49.610;11.016;2023-05-24T08:59:15;98555.78;;;19.25;52.79
22311;BME280;11323;49.610;11.016;2023-05-24T09:04:17;98548.31;;;19.29;52.47
22311;BME280;11323;49.610;11.016;2023-05-24T09:09:20;98552.38;;;19.32;52.89
22311;BME280;11323;49.610;11.016;2023-05-24T09:14:20;98558.94;;;19.36;53.26
22311;BME280;11323;49.610;11.016;2023-05-24T09:19:21;98558.53;;;19.39;53.06
22311;BME280;11323;49.610;11.016;2023-05-24T09:24:22;98566.66;;;19.37;53.30
22311;BME280;11323;49.610;11.016;2023-05-24T09:29:22;98570.94;;;19.38;53.34
22311;BME280;11323;49.610;11.016;2023-05-24T09:34:23;98576.03;;;19.40;52.92
22311;BME280;11323;49.610;11.016;2023-05-24T09:39:24;98570.50;;;19.35;53.10
22311;BME280;11323;49.610;11.016;2023-05-24T09:44:25;98571.31;;;19.35;52.99
22311;BME280;11323;49.610;11.016;2023-05-24T09:49:27;98570.50;;;19.35;53.49
22311;BME280;11323;49.610;11.016;2023-05-24T09:54:27;98561.38;;;19.37;53.31
22311;BME280;11323;49.610;11.016;2023-05-24T09:59:31;98564.22;;;19.36;53.58
22311;BME280;11323;49.610;11.016;2023-05-24T10:04:33;98559.38;;;19.39;53.51
22311;BME280;11323;49.610;11.016;2023-05-24T10:09:34;98555.88;;;19.39;53.81
22311;BME280;11323;49.610;11.016;2023-05-24T10:14:36;98546.56;;;19.43;53.59
22311;BME280;11323;49.610;11.016;2023-05-24T10:19:37;98535.00;;;19.44;53.56
22311;BME280;11323;49.610;11.016;2023-05-24T10:24:38;98540.28;;;19.44;54.10
22311;BME280;11323;49.610;11.016;2023-05-24T10:34:47;98532.97;;;19.46;53.68
22311;BME280;11323;49.610;11.016;2023-05-24T10:39:49;98527.13;;;19.51;54.11
22311;BME280;11323;49.610;11.016;2023-05-24T10:44:50;98525.28;;;19.51;53.96
22311;BME280;11323;49.610;11.016;2023-05-24T10:49:54;98531.41;;;19.52;53.86
22311;BME280;11323;49.610;11.016;2023-05-24T10:55:01;98516.72;;;19.49;54.39
22311;BME280;11323;49.610;11.016;2023-05-24T11:05:22;98522.84;;;19.50;54.33
22311;BME280;11323;49.610;11.016;2023-05-24T11:10:29;98528.94;;;19.50;54.40
22311;BME280;11323;49.610;11.016;2023-05-24T11:15:30;98512.25;;;19.50;54.48
22311;BME280;11323;49.610;11.016;2023-05-24T11:20:30;98520.00;;;19.51;54.48
22311;BME280;11323;49.610;11.016;2023-05-24T11:25:34;98514.72;;;19.51;54.49
22311;BME280;11323;49.610;11.016;2023-05-24T11:30:41;98511.88;;;19.53;54.49
22311;BME280;11323;49.610;11.016;2023-05-24T11:35:41;98502.50;;;19.50;54.69
22311;BME280;11323;49.610;11.016;2023-05-24T11:40:43;98496.19;;;19.51;54.97
22311;BME280;11323;49.610;11.016;2023-05-24T11:45:46;98503.75;;;19.54;54.99
22311;BME280;11323;49.610;11.016;2023-05-24T11:50:47;98502.13;;;19.53;55.00
22311;BME280;11323;49.610;11.016;2023-05-24T11:55:48;98500.09;;;19.55;55.36
22311;BME280;11323;49.610;11.016;2023-05-24T12:00:51;98493.19;;;19.54;55.38
22311;BME280;11323;49.610;11.016;2023-05-24T12:05:55;98489.16;;;19.58;55.08
22311;BME280;11323;49.610;11.016;2023-05-24T12:10:56;98480.19;;;19.59;55.46
22311;BME280;11323;49.610;11.016;2023-05-24T12:15:58;98483.66;;;19.60;54.96
22311;BME280;11323;49.610;11.016;2023-05-24T12:20:58;98479.59;;;19.57;55.24
22311;BME280;11323;49.610;11.016;2023-05-24T12:26:03;98474.91;;;19.59;55.24
22311;BME280;11323;49.610;11.016;2023-05-24T12:31:04;98482.22;;;19.57;55.37
22311;BME280;11323;49.610;11.016;2023-05-24T12:36:06;98470.00;;;19.56;55.38
22311;BME280;11323;49.610;11.016;2023-05-24T12:41:06;98466.38;;;19.57;55.31
22311;BME280;11323;49.610;11.016;2023-05-24T12:46:06;98449.75;;;19.70;55.46
22311;BME280;11323;49.610;11.016;2023-05-24T12:51:07;98456.28;;;19.74;55.61
22311;BME280;11323;49.610;11.016;2023-05-24T12:56:07;98454.25;;;19.76;56.29
22311;BME280;11323;49.610;11.016;2023-05-24T13:01:08;98447.75;;;19.79;56.88
22311;BME280;11323;49.610;11.016;2023-05-24T13:06:08;98458.72;;;19.76;56.31
22311;BME280;11323;49.610;11.016;2023-05-24T13:11:09;98451.19;;;19.73;56.16
22311;BME280;11323;49.610;11.016;2023-05-24T13:16:09;98453.81;;;19.73;56.14
22311;BME280;11323;49.610;11.016;2023-05-24T13:21:09;98447.53;;;19.74;55.87
22311;BME280;11323;49.610;11.016;2023-05-24T13:26:10;98443.25;;;19.73;56.00
22311;BME280;11323;49.610;11.016;2023-05-24T13:31:12;98443.88;;;19.75;56.32
22311;BME280;11323;49.610;11.016;2023-05-24T13:36:13;98429.22;;;19.72;56.04
22311;BME280;11323;49.610;11.016;2023-05-24T13:41:13;98434.31;;;19.74;56.11
22311;BME280;11323;49.610;11.016;2023-05-24T13:46:14;98430.66;;;19.75;56.04
22311;BME280;11323;49.610;11.016;2023-05-24T13:51:14;98424.34;;;19.76;55.96
22311;BME280;11323;49.610;11.016;2023-05-24T13:56:17;98432.28;;;19.76;56.06
22311;BME280;11323;49.610;11.016;2023-05-24T14:01:18;98421.75;;;19.83;56.11
22311;BME280;11323;49.610;11.016;2023-05-24T14:06:18;98420.97;;;19.89;57.05
22311;BME280;11323;49.610;11.016;2023-05-24T14:11:21;98433.00;;;19.92;56.98
22311;BME280;11323;49.610;11.016;2023-05-24T14:16:21;98418.56;;;19.94;56.70
22311;BME280;11323;49.610;11.016;2023-05-24T14:21:22;98421.00;;;19.96;57.00
22311;BME280;11323;49.610;11.016;2023-05-24T14:26:24;98422.25;;;20.00;56.73
22311;BME280;11323;49.610;11.016;2023-05-24T14:31:26;98426.31;;;20.02;56.87
22311;BME280;11323;49.610;11.016;2023-05-24T14:36:26;98418.19;;;20.04;57.10
22311;BME280;11323;49.610;11.016;2023-05-24T14:41:27;98423.06;;;20.07;57.09
22311;BME280;11323;49.610;11.016;2023-05-24T14:46:27;98431.63;;;20.09;56.42
22311;BME280;11323;49.610;11.016;2023-05-24T14:51:28;98434.88;;;20.11;56.88
22311;BME280;11323;49.610;11.016;2023-05-24T14:56:28;98428.38;;;20.14;56.93
22311;BME280;11323;49.610;11.016;2023-05-24T15:01:28;98426.75;;;20.13;56.60
22311;BME280;11323;49.610;11.016;2023-05-24T15:06:29;98433.47;;;20.15;57.00
22311;BME280;11323;49.610;11.016;2023-05-24T15:11:33;98424.50;;;20.16;57.14
22311;BME280;11323;49.610;11.016;2023-05-24T15:16:34;98436.53;;;20.12;56.69
22311;BME280;11323;49.610;11.016;2023-05-24T15:21:35;98435.69;;;20.12;56.89
22311;BME280;11323;49.610;11.016;2023-05-24T15:26:36;98430.22;;;20.13;57.03
22311;BME280;11323;49.610;11.016;2023-05-24T15:31:36;98431.22;;;20.12;56.84
22311;BME280;11323;49.610;11.016;2023-05-24T15:36:36;98429.19;;;20.08;56.84
22311;BME280;11323;49.610;11.016;2023-05-24T15:41:37;98436.31;;;20.14;56.64
22311;BME280;11323;49.610;11.016;2023-05-24T15:46:38;98427.59;;;20.20;56.77
22311;BME280;11323;49.610;11.016;2023-05-24T15:51:39;98434.09;;;20.24;57.35
22311;BME280;11323;49.610;11.016;2023-05-24T15:56:39;98440.44;;;20.30;57.28
22311;BME280;11323;49.610;11.016;2023-05-24T16:01:39;98439.03;;;20.34;57.28
22311;BME280;11323;49.610;11.016;2023-05-24T16:06:40;98429.25;;;20.41;57.51
22311;BME280;11323;49.610;11.016;2023-05-24T16:11:40;98431.50;;;20.44;57.59
22311;BME280;11323;49.610;11.016;2023-05-24T16:16:42;98425.19;;;20.45;57.86
22311;BME280;11323;49.610;11.016;2023-05-24T16:21:43;98428.47;;;20.47;58.13
22311;BME280;11323;49.610;11.016;2023-05-24T16:26:43;98432.31;;;20.51;58.14
22311;BME280;11323;49.610;11.016;2023-05-24T16:31:44;98428.28;;;20.56;58.08
22311;BME280;11323;49.610;11.016;2023-05-24T16:36:44;98433.56;;;20.62;58.33
22311;BME280;11323;49.610;11.016;2023-05-24T16:41:46;98426.03;;;20.66;58.30
22311;BME280;11323;49.610;11.016;2023-05-24T16:46:46;98427.28;;;20.70;57.84
22311;BME280;11323;49.610;11.016;2023-05-24T16:51:47;98428.50;;;20.74;58.46
22311;BME280;11323;49.610;11.016;2023-05-24T16:56:48;98421.19;;;20.76;58.35
22311;BME280;11323;49.610;11.016;2023-05-24T17:01:48;98421.19;;;20.83;58.59
22311;BME280;11323;49.610;11.016;2023-05-24T17:06:50;98416.28;;;20.87;58.63
22311;BME280;11323;49.610;11.016;2023-05-24T17:11:50;98419.16;;;20.92;58.68
22311;BME280;11323;49.610;11.016;2023-05-24T17:16:51;98426.88;;;21.00;58.82
22311;BME280;11323;49.610;11.016;2023-05-24T17:21:51;98429.31;;;21.02;58.63
22311;BME280;11323;49.610;11.016;2023-05-24T17:26:53;98430.78;;;21.04;58.86
22311;BME280;11323;49.610;11.016;2023-05-24T17:31:53;98436.25;;;21.09;58.54
22311;BME280;11323;49.610;11.016;2023-05-24T17:36:54;98433.41;;;21.11;58.55
22311;BME280;11323;49.610;11.016;2023-05-24T17:41:54;98437.88;;;21.10;58.58
22311;BME280;11323;49.610;11.016;2023-05-24T17:46:54;98444.59;;;21.13;59.06
22311;BME280;11323;49.610;11.016;2023-05-24T17:51:57;98452.78;;;21.11;58.91
22311;BME280;11323;49.610;11.016;2023-05-24T17:56:58;98447.06;;;21.14;58.83
22311;BME280;11323;49.610;11.016;2023-05-24T18:01:58;98453.16;;;21.15;58.96
22311;BME280;11323;49.610;11.016;2023-05-24T18:06:58;98455.41;;;21.11;58.52
22311;BME280;11323;49.610;11.016;2023-05-24T18:11:59;98472.75;;;21.07;58.61
22311;BME280;11323;49.610;11.016;2023-05-24T18:16:59;98481.13;;;21.04;58.67
22311;BME280;11323;49.610;11.016;2023-05-24T18:22:00;98480.28;;;21.04;58.39
22311;BME280;11323;49.610;11.016;2023-05-24T18:27:00;98486.81;;;21.01;58.20
22311;BME280;11323;49.610;11.016;2023-05-24T18:32:01;98495.78;;;21.00;57.80
22311;BME280;11323;49.610;11.016;2023-05-24T18:37:02;98487.81;;;21.00;58.14
22311;BME280;11323;49.610;11.016;2023-05-24T18:42:02;98501.69;;;21.09;58.63
22311;BME280;11323;49.610;11.016;2023-05-24T18:47:03;98508.03;;;21.14;58.61
22311;BME280;11323;49.610;11.016;2023-05-24T18:52:04;98513.72;;;21.05;53.31
22311;BME280;11323;49.610;11.016;2023-05-24T18:57:04;98511.13;;;20.49;50.27
22311;BME280;11323;49.610;11.016;2023-05-24T19:02:05;98515.91;;;20.12;45.71
22311;BME280;11323;49.610;11.016;2023-05-24T19:07:05;98517.47;;;20.00;46.35
22311;BME280;11323;49.610;11.016;2023-05-24T19:12:06;98522.63;;;20.15;47.24
22311;BME280;11323;49.610;11.016;2023-05-24T19:17:08;98531.69;;;20.41;50.73
22311;BME280;11323;49.610;11.016;2023-05-24T19:22:09;98543.53;;;20.51;50.71
22311;BME280;11323;49.610;11.016;2023-05-24T19:27:09;98549.06;;;20.57;51.18
22311;BME280;11323;49.610;11.016;2023-05-24T19:32:09;98553.75;;;20.61;52.34
22311;BME280;11323;49.610;11.016;2023-05-24T19:37:10;98561.69;;;20.61;52.12
22311;BME280;11323;49.610;11.016;2023-05-24T19:42:11;98568.81;;;20.61;52.51
22311;BME280;11323;49.610;11.016;2023-05-24T19:47:11;98570.25;;;20.63;52.79
22311;BME280;11323;49.610;11.016;2023-05-24T19:52:11;98576.38;;;20.71;52.86
22311;BME280;11323;49.610;11.016;2023-05-24T19:57:13;63548.38;;;-146.54;100.00
22311;BME280;11323;49.610;11.016;2023-05-24T20:02:13;63548.38;;;-146.54;100.00
22311;BME280;11323;49.610;11.016;2023-05-24T20:07:14;98592.56;;;20.82;53.33
22311;BME280;11323;49.610;11.016;2023-05-24T20:12:14;98604.59;;;20.92;53.55
22311;BME280;11323;49.610;11.016;2023-05-24T20:17:15;98597.88;;;20.96;53.71
22311;BME280;11323;49.610;11.016;2023-05-24T20:22:16;98605.66;;;21.04;53.88
22311;BME280;11323;49.610;11.016;2023-05-24T20:27:17;98606.69;;;21.10;53.75
22311;BME280;11323;49.610;11.016;2023-05-24T20:32:18;98600.56;;;21.09;54.19
22311;BME280;11323;49.610;11.016;2023-05-24T20:37:18;98597.28;;;21.14;54.53
22311;BME280;11323;49.610;11.016;2023-05-24T20:42:18;98613.00;;;21.22;54.39
22311;BME280;11323;49.610;11.016;2023-05-24T20:47:19;98607.31;;;21.25;54.66
22311;BME280;11323;49.610;11.016;2023-05-24T20:52:19;98610.16;;;21.24;54.80
22311;BME280;11323;49.610;11.016;2023-05-24T20:57:20;98616.09;;;21.33;54.48
22311;BME280;11323;49.610;11.016;2023-05-24T21:02:21;98615.28;;;21.45;54.15
22311;BME280;11323;49.610;11.016;2023-05-24T21:07:21;98623.44;;;21.37;54.34
22311;BME280;11323;49.610;11.016;2023-05-24T21:12:22;98623.84;;;21.34;54.08
22311;BME280;11323;49.610;11.016;2023-05-24T21:17:22;98628.13;;;21.35;54.41
22311;BME280;11323;49.610;11.016;2023-05-24T21:22:23;98627.09;;;21.29;53.77
22311;BME280;11323;49.610;11.016;2023-05-24T21:27:23;98632.81;;;21.33;54.27
22311;BME280;11323;49.610;11.016;2023-05-24T21:32:23;98645.84;;;21.35;54.12
22311;BME280;11323;49.610;11.016;2023-05-24T21:37:24;98649.13;;;21.37;54.26
22311;BME280;11323;49.610;11.016;2023-05-24T21:42:24;98646.06;;;21.26;52.39
22311;BME280;11323;49.610;11.016;2023-05-24T21:47:24;98653.56;;;21.09;52.78
22311;BME280;11323;49.610;11.016;2023-05-24T21:52:25;98655.81;;;21.12;53.12
22311;BME280;11323;49.610;11.016;2023-05-24T21:57:25;98662.75;;;21.13;53.75
22311;BME280;11323;49.610;11.016;2023-05-24T22:02:26;98662.34;;;21.10;53.58
22311;BME280;11323;49.610;11.016;2023-05-24T22:07:26;98667.81;;;21.08;54.35
22311;BME280;11323;49.610;11.016;2023-05-24T22:12:26;98674.34;;;21.06;53.68
22311;BME280;11323;49.610;11.016;2023-05-24T22:17:27;98666.16;;;21.01;54.00
22311;BME280;11323;49.610;11.016;2023-05-24T22:22:32;98663.94;;;20.97;53.72
22311;BME280;11323;49.610;11.016;2023-05-24T22:27:32;98664.53;;;20.93;53.85
22311;BME280;11323;49.610;11.016;2023-05-24T22:32:34;98662.88;;;20.92;53.88
22311;BME280;11323;49.610;11.016;2023-05-24T22:37:35;98673.28;;;20.93;53.48
22311;BME280;11323;49.610;11.016;2023-05-24T22:42:35;98662.06;;;20.91;53.93
22311;BME280;11323;49.610;11.016;2023-05-24T22:47:36;98666.56;;;20.91;54.19
22311;BME280;11323;49.610;11.016;2023-05-24T22:52:38;98666.16;;;20.94;53.92
22311;BME280;11323;49.610;11.016;2023-05-24T22:57:41;98682.44;;;20.91;54.22
22311;BME280;11323;49.610;11.016;2023-05-24T23:02:42;98686.09;;;20.90;54.32
22311;BME280;11323;49.610;11.016;2023-05-24T23:07:42;98686.31;;;20.88;54.25
22311;BME280;11323;49.610;11.016;2023-05-24T23:12:42;98681.19;;;20.87;54.30
22311;BME280;11323;49.610;11.016;2023-05-24T23:17:43;98672.63;;;20.85;54.21
22311;BME280;11323;49.610;11.016;2023-05-24T23:22:43;98667.31;;;20.85;54.19
22311;BME280;11323;49.610;11.016;2023-05-24T23:27:45;98669.38;;;20.82;54.36
22311;BME280;11323;49.610;11.016;2023-05-24T23:32:46;98673.03;;;20.81;54.39
22311;BME280;11323;49.610;11.016;2023-05-24T23:37:46;98667.13;;;20.79;54.23
22311;BME280;11323;49.610;11.016;2023-05-24T23:42:47;98673.44;;;20.78;54.38
22311;BME280;11323;49.610;11.016;2023-05-24T23:47:47;98679.13;;;20.75;54.23
22311;BME280;11323;49.610;11.016;2023-05-24T23:52:48;98677.47;;;20.74;54.58
22311;BME280;11323;49.610;11.016;2023-05-24T23:57:48;98668.88;;;20.72;54.51
